Norfolk, Virginia
Traffic Map
Current Weather Conditions
Norfolk, Virginia
Broken Clouds
Broken Clouds
26°
Feels Like: 27°
Wind Chill: 26° Ceiling: 9000
Heat Index: 27° Visibility: 10mi
Dew Point: 21° Wind: 9mph
Humidity: 76% Direction: 50° (NE)
Pressure: 29.84in Gusts: 0mph
Raw Report DataKORF 242251Z AUTO 05008KT 10SM BKN090 BKN100 26/21 A2984 RMK AO2 SLP105 T02560211 TSNO
Traffic Incident Summary
Active as of:
Severity:
Category:
InformationThere was an issue retrieving the traffic information for this location. Please try a different location or try again shortly.
Advertisements
Track Severe Weather on mobile